Oberon — SKJF — position and weather

sailwx.info

Track history (hours):
 
Tides and Currents Weather Stations Pressure Air Temp Water Temp Dewpoint Dewpoint Depression Visibility Wind Speed Wind Dir Waves Ship Positions

Oberon

Last reported at 2015-Aug-02 23:29 UTC. Time now 2015-Aug-03 00:21 UTC.
Position N 51°19' E 003°14'.

Length 232 m; draft 9.3 m.

Type: Cargo ship. MMSI: 266283000.

Date/timePositionNaut miles runAvg speedWind from/ knotsBaromVisibWave heightAir tempDewpointWater temp
2015-Aug-02 23:29N 51°19' E 003°14'0 0.0
2015-Aug-02 22:29N 51°19' E 003°14'0 0.0
2015-Aug-02 21:32N 51°19' E 003°14'0 0.0
2015-Aug-02 20:32N 51°19' E 003°14'0 0.0
2015-Aug-02 19:32N 51°19' E 003°14'0 0.0
2015-Aug-02 18:32N 51°19' E 003°14'0 0.0
2015-Aug-02 17:32N 51°19' E 003°14'0 0.0
2015-Aug-02 16:32N 51°19' E 003°14'0 0.0
2015-Aug-02 15:32N 51°19' E 003°14'0 0.0
2015-Aug-02 14:32N 51°19' E 003°14'0 0.0
2015-Aug-02 13:32N 51°19' E 003°14'0 0.0
2015-Aug-02 12:32N 51°19' E 003°14'0 0.0
2015-Aug-02 11:32N 51°19' E 003°14'0 0.0
2015-Aug-02 10:32N 51°19' E 003°14'0 0.0
2015-Aug-02 09:29N 51°19' E 003°14'0 0.0
2015-Aug-02 08:32N 51°19' E 003°14'0 0.0
2015-Aug-02 07:32N 51°19' E 003°14'0 0.0
2015-Aug-02 06:32N 51°19' E 003°14'0 0.0
2015-Aug-02 05:32N 51°19' E 003°14'0 0.0
2015-Aug-02 04:32N 51°19' E 003°14'0 0.0
2015-Aug-02 03:32N 51°19' E 003°14'0 0.0
2015-Aug-02 02:29N 51°19' E 003°14'0 0.0
2015-Aug-02 01:32N 51°19' E 003°14'0 0.0
2015-Aug-02 00:32N 51°19' E 003°14'0 0.0
2015-Aug-01 23:32N 51°19' E 003°14'0 0.0
2015-Aug-01 22:29N 51°19' E 003°14'0 0.4
2015-Aug-01 21:33N 51°19' E 003°13'1 0.9
2015-Aug-01 20:33N 51°20' E 003°13'3 3.2
2015-Aug-01 19:34N 51°23' E 003°10'1111.0
2015-Aug-01 18:33N 51°22' E 002°52'9 9.2
2015-Aug-01 17:33N 51°28' E 002°42'1111.0
2015-Aug-01 16:33N 51°39' E 002°45'1818.1
2015-Aug-01 15:33N 51°57' E 002°45'1717.4
2015-Aug-01 14:33N 52°11' E 003°01'1818.0
2015-Aug-01 13:33N 52°26' E 003°17'1918.2
2015-Aug-01 12:31N 52°42' E 003°36'3818.9
2015-Aug-01 10:31N 53°08' E 004°21'2020.6
2015-Aug-01 09:33N 53°26' E 004°36'1717.7
2015-Aug-01 08:33N 53°34' E 005°02'1211.8
2015-Aug-01 07:33N 53°38' E 005°21'1111.0
2015-Aug-01 06:34N 53°41' E 005°39'1717.2
2015-Aug-01 05:33N 53°46' E 006°07'1818.4
2015-Aug-01 04:33N 53°51' E 006°37'1919.3
2015-Aug-01 03:33N 53°56' E 007°08'1918.8
2015-Aug-01 02:34N 53°59' E 007°40'1515.3
2015-Aug-01 01:34N 53°51' E 008°02'1918.8
2015-Aug-01 00:33N 53°38' E 008°26'6 5.9
2015-Jul-31 23:33N 53°34' E 008°33'0 0.5
2015-Jul-31 22:33N 53°35' E 008°33'0 0.0
2015-Jul-31 21:32N 53°35' E 008°33'0 0.0
2015-Jul-31 20:29N 53°35' E 008°33'0 0.0
2015-Jul-31 19:32N 53°35' E 008°33'0 0.0
2015-Jul-31 18:32N 53°35' E 008°33'0 0.0
2015-Jul-31 17:32N 53°35' E 008°33'0 0.0
2015-Jul-31 16:32N 53°35' E 008°33'0 0.0
2015-Jul-31 15:32N 53°35' E 008°33'0 0.0
2015-Jul-31 14:32N 53°35' E 008°33'0 0.0
2015-Jul-31 13:32N 53°35' E 008°33'0 0.0
2015-Jul-31 12:32N 53°35' E 008°33'0 0.0
2015-Jul-31 11:32N 53°35' E 008°33'0 0.0
2015-Jul-31 10:32N 53°35' E 008°33'0 0.0
2015-Jul-31 09:33N 53°35' E 008°33'0 0.0
2015-Jul-31 08:32N 53°35' E 008°33'0 0.0
2015-Jul-31 07:32N 53°35' E 008°33'0 0.0
2015-Jul-31 06:32N 53°35' E 008°33'0 0.0
2015-Jul-31 05:33N 53°35' E 008°33'0 0.0
2015-Jul-31 04:32N 53°35' E 008°33'0 0.0
2015-Jul-31 03:33N 53°35' E 008°33'0 0.0
2015-Jul-31 02:32N 53°35' E 008°33'0 0.0
2015-Jul-31 01:33N 53°35' E 008°33'0 0.0
2015-Jul-31 00:32N 53°35' E 008°33'0 0.0
2015-Jul-30 23:32N 53°35' E 008°33'0 0.0
2015-Jul-30 22:32N 53°35' E 008°33'0 0.0
2015-Jul-30 21:32N 53°35' E 008°33'0 0.0
2015-Jul-30 20:32N 53°35' E 008°33'0 0.0
2015-Jul-30 19:32N 53°35' E 008°33'0 0.0
2015-Jul-30 18:33N 53°35' E 008°33'1 0.7
2015-Jul-30 17:33N 53°34' E 008°33'8 8.2
2015-Jul-30 16:33N 53°40' E 008°23'1414.5
2015-Jul-30 15:33N 53°50' E 008°05'1212.2
2015-Jul-30 14:33N 53°53' E 007°45'6 6.0
2015-Jul-30 13:33N 53°56' E 007°37'3 3.0
2015-Jul-30 12:33N 53°58' E 007°41'4 4.1
2015-Jul-30 11:34N 53°54' E 007°38'2 1.6
2015-Jul-30 10:33N 53°56' E 007°39'1010.0
2015-Jul-30 09:33N 54°05' E 007°31'7 7.1
2015-Jul-30 08:33N 54°11' E 007°35'8 8.0
2015-Jul-30 07:33N 54°07' E 007°47'8 7.7
2015-Jul-30 06:33N 54°01' E 007°54'9 9.0
2015-Jul-30 05:33N 53°57' E 007°40'10 9.9
2015-Jul-30 04:33N 54°05' E 007°31'1010.4
2015-Jul-30 03:33N 54°14' E 007°23'6 6.1
2015-Jul-30 02:33N 54°21' E 007°22'8 8.3
2015-Jul-30 01:33N 54°14' E 007°30'8 8.4
2015-Jul-30 00:33N 54°06' E 007°36'8 7.9
2015-Jul-29 23:33N 53°59' E 007°42'8 8.0
2015-Jul-29 22:33N 53°55' E 007°30'1010.1
2015-Jul-29 21:33N 53°53' E 007°13'1615.8
2015-Jul-29 20:33N 53°49' E 006°47'1615.9
2015-Jul-29 19:33N 53°45' E 006°21'1615.9
2015-Jul-29 18:33N 53°40' E 005°56'1716.6
2015-Jul-29 17:34N 53°35' E 005°29'1716.7
2015-Jul-29 16:34N 53°29' E 005°03'1515.4
2015-Jul-29 15:33N 53°21' E 004°41'1616.1
2015-Jul-29 14:33N 53°07' E 004°27'1616.1
2015-Jul-29 13:34N 52°53' E 004°16'1616.3
2015-Jul-29 12:33N 52°40' E 003°59'1716.8
2015-Jul-29 11:33N 52°28' E 003°40'6616.6
2015-Jul-29 07:33N 51°38' E 002°28'1616.1
2015-Jul-29 06:33N 51°25' E 002°12'1615.5
2015-Jul-29 05:33N 51°12' E 001°60'1616.0
2015-Jul-29 04:33N 51°03' E 001°39'1615.8
2015-Jul-29 03:33N 50°50' E 001°24'1515.4
2015-Jul-29 02:33N 50°37' E 001°12'1615.7
2015-Jul-29 01:30N 50°28' E 000°49'  
Track history (hours):
 
Tides and Currents Weather Stations Pressure Air Temp Water Temp Dewpoint Dewpoint Depression Visibility Wind Speed Wind Dir Waves Ship Positions

Oberon

Last reported at 2015-Aug-02 23:29 UTC. Time now 2015-Aug-03 00:21 UTC.
Position N 51°19' E 003°14'.

Length 232 m; draft 9.3 m.

Type: Cargo ship. MMSI: 266283000.

Date/timePositionNaut miles runAvg speedWind from/ knotsBaromVisibWave heightAir tempDewpointWater temp
2015-Aug-02 23:29N 51°19' E 003°14'0 0.0
2015-Aug-02 22:29N 51°19' E 003°14'0 0.0
2015-Aug-02 21:32N 51°19' E 003°14'0 0.0
2015-Aug-02 20:32N 51°19' E 003°14'0 0.0
2015-Aug-02 19:32N 51°19' E 003°14'0 0.0
2015-Aug-02 18:32N 51°19' E 003°14'0 0.0
2015-Aug-02 17:32N 51°19' E 003°14'0 0.0
2015-Aug-02 16:32N 51°19' E 003°14'0 0.0
2015-Aug-02 15:32N 51°19' E 003°14'0 0.0
2015-Aug-02 14:32N 51°19' E 003°14'0 0.0
2015-Aug-02 13:32N 51°19' E 003°14'0 0.0
2015-Aug-02 12:32N 51°19' E 003°14'0 0.0
2015-Aug-02 11:32N 51°19' E 003°14'0 0.0
2015-Aug-02 10:32N 51°19' E 003°14'0 0.0
2015-Aug-02 09:29N 51°19' E 003°14'0 0.0
2015-Aug-02 08:32N 51°19' E 003°14'0 0.0
2015-Aug-02 07:32N 51°19' E 003°14'0 0.0
2015-Aug-02 06:32N 51°19' E 003°14'0 0.0
2015-Aug-02 05:32N 51°19' E 003°14'0 0.0
2015-Aug-02 04:32N 51°19' E 003°14'0 0.0
2015-Aug-02 03:32N 51°19' E 003°14'0 0.0
2015-Aug-02 02:29N 51°19' E 003°14'0 0.0
2015-Aug-02 01:32N 51°19' E 003°14'0 0.0
2015-Aug-02 00:32N 51°19' E 003°14'0 0.0
2015-Aug-01 23:32N 51°19' E 003°14'0 0.0
2015-Aug-01 22:29N 51°19' E 003°14'0 0.4
2015-Aug-01 21:33N 51°19' E 003°13'1 0.9
2015-Aug-01 20:33N 51°20' E 003°13'3 3.2
2015-Aug-01 19:34N 51°23' E 003°10'1111.0
2015-Aug-01 18:33N 51°22' E 002°52'9 9.2
2015-Aug-01 17:33N 51°28' E 002°42'1111.0
2015-Aug-01 16:33N 51°39' E 002°45'1818.1
2015-Aug-01 15:33N 51°57' E 002°45'1717.4
2015-Aug-01 14:33N 52°11' E 003°01'1818.0
2015-Aug-01 13:33N 52°26' E 003°17'1918.2
2015-Aug-01 12:31N 52°42' E 003°36'3818.9
2015-Aug-01 10:31N 53°08' E 004°21'2020.6
2015-Aug-01 09:33N 53°26' E 004°36'1717.7
2015-Aug-01 08:33N 53°34' E 005°02'1211.8
2015-Aug-01 07:33N 53°38' E 005°21'1111.0
2015-Aug-01 06:34N 53°41' E 005°39'1717.2
2015-Aug-01 05:33N 53°46' E 006°07'1818.4
2015-Aug-01 04:33N 53°51' E 006°37'1919.3
2015-Aug-01 03:33N 53°56' E 007°08'1918.8
2015-Aug-01 02:34N 53°59' E 007°40'1515.3
2015-Aug-01 01:34N 53°51' E 008°02'1918.8
2015-Aug-01 00:33N 53°38' E 008°26'6 5.9
2015-Jul-31 23:33N 53°34' E 008°33'0 0.5
2015-Jul-31 22:33N 53°35' E 008°33'0 0.0
2015-Jul-31 21:32N 53°35' E 008°33'0 0.0
2015-Jul-31 20:29N 53°35' E 008°33'0 0.0
2015-Jul-31 19:32N 53°35' E 008°33'0 0.0
2015-Jul-31 18:32N 53°35' E 008°33'0 0.0
2015-Jul-31 17:32N 53°35' E 008°33'0 0.0
2015-Jul-31 16:32N 53°35' E 008°33'0 0.0
2015-Jul-31 15:32N 53°35' E 008°33'0 0.0
2015-Jul-31 14:32N 53°35' E 008°33'0 0.0
2015-Jul-31 13:32N 53°35' E 008°33'0 0.0
2015-Jul-31 12:32N 53°35' E 008°33'0 0.0
2015-Jul-31 11:32N 53°35' E 008°33'0 0.0
2015-Jul-31 10:32N 53°35' E 008°33'0 0.0
2015-Jul-31 09:33N 53°35' E 008°33'0 0.0
2015-Jul-31 08:32N 53°35' E 008°33'0 0.0
2015-Jul-31 07:32N 53°35' E 008°33'0 0.0
2015-Jul-31 06:32N 53°35' E 008°33'0 0.0
2015-Jul-31 05:33N 53°35' E 008°33'0 0.0
2015-Jul-31 04:32N 53°35' E 008°33'0 0.0
2015-Jul-31 03:33N 53°35' E 008°33'0 0.0
2015-Jul-31 02:32N 53°35' E 008°33'0 0.0
2015-Jul-31 01:33N 53°35' E 008°33'0 0.0
2015-Jul-31 00:32N 53°35' E 008°33'0 0.0
2015-Jul-30 23:32N 53°35' E 008°33'0 0.0
2015-Jul-30 22:32N 53°35' E 008°33'0 0.0
2015-Jul-30 21:32N 53°35' E 008°33'0 0.0
2015-Jul-30 20:32N 53°35' E 008°33'0 0.0
2015-Jul-30 19:32N 53°35' E 008°33'0 0.0
2015-Jul-30 18:33N 53°35' E 008°33'1 0.7
2015-Jul-30 17:33N 53°34' E 008°33'8 8.2
2015-Jul-30 16:33N 53°40' E 008°23'1414.5
2015-Jul-30 15:33N 53°50' E 008°05'1212.2
2015-Jul-30 14:33N 53°53' E 007°45'6 6.0
2015-Jul-30 13:33N 53°56' E 007°37'3 3.0
2015-Jul-30 12:33N 53°58' E 007°41'4 4.1
2015-Jul-30 11:34N 53°54' E 007°38'2 1.6
2015-Jul-30 10:33N 53°56' E 007°39'1010.0
2015-Jul-30 09:33N 54°05' E 007°31'7 7.1
2015-Jul-30 08:33N 54°11' E 007°35'8 8.0
2015-Jul-30 07:33N 54°07' E 007°47'8 7.7
2015-Jul-30 06:33N 54°01' E 007°54'9 9.0
2015-Jul-30 05:33N 53°57' E 007°40'10 9.9
2015-Jul-30 04:33N 54°05' E 007°31'1010.4
2015-Jul-30 03:33N 54°14' E 007°23'6 6.1
2015-Jul-30 02:33N 54°21' E 007°22'8 8.3
2015-Jul-30 01:33N 54°14' E 007°30'8 8.4
2015-Jul-30 00:33N 54°06' E 007°36'8 7.9
2015-Jul-29 23:33N 53°59' E 007°42'8 8.0
2015-Jul-29 22:33N 53°55' E 007°30'1010.1
2015-Jul-29 21:33N 53°53' E 007°13'1615.8
2015-Jul-29 20:33N 53°49' E 006°47'1615.9
2015-Jul-29 19:33N 53°45' E 006°21'1615.9
2015-Jul-29 18:33N 53°40' E 005°56'1716.6
2015-Jul-29 17:34N 53°35' E 005°29'1716.7
2015-Jul-29 16:34N 53°29' E 005°03'1515.4
2015-Jul-29 15:33N 53°21' E 004°41'1616.1
2015-Jul-29 14:33N 53°07' E 004°27'1616.1
2015-Jul-29 13:34N 52°53' E 004°16'1616.3
2015-Jul-29 12:33N 52°40' E 003°59'1716.8
2015-Jul-29 11:33N 52°28' E 003°40'6616.6
2015-Jul-29 07:33N 51°38' E 002°28'1616.1
2015-Jul-29 06:33N 51°25' E 002°12'1615.5
2015-Jul-29 05:33N 51°12' E 001°60'1616.0
2015-Jul-29 04:33N 51°03' E 001°39'1615.8
2015-Jul-29 03:33N 50°50' E 001°24'1515.4
2015-Jul-29 02:33N 50°37' E 001°12'1615.7
2015-Jul-29 01:30N 50°28' E 000°49'  

Dump ship's entire track history